createdAt,value
2023-05-10T00:04:12.958Z,13.50
2023-05-10T00:10:03.809Z,13.38
2023-05-10T00:15:52.013Z,13.33
2023-05-10T00:21:39.507Z,13.24
2023-05-10T00:27:26.731Z,13.40
2023-05-10T00:33:13.798Z,13.39
2023-05-10T00:39:01.324Z,13.51
2023-05-10T00:44:53.129Z,13.37
2023-05-10T00:50:41.155Z,13.36
2023-05-10T00:56:32.874Z,13.39
2023-05-10T01:02:20.033Z,13.54
2023-05-10T01:08:07.495Z,13.33
2023-05-10T01:13:59.715Z,13.24
2023-05-10T01:19:46.961Z,13.27
2023-05-10T01:25:47.408Z,13.08
2023-05-10T01:31:57.173Z,13.40
2023-05-10T01:38:00.564Z,13.52
2023-05-10T01:44:22.792Z,13.40
2023-05-10T01:50:16.550Z,13.47
2023-05-10T01:56:05.034Z,13.43
2023-05-10T02:01:54.308Z,13.51
2023-05-10T02:07:42.578Z,13.44
2023-05-10T02:13:32.687Z,13.39
2023-05-10T02:19:20.992Z,13.44
2023-05-10T02:25:09.811Z,13.41
2023-05-10T02:30:58.187Z,13.25
2023-05-10T02:36:48.974Z,13.20
2023-05-10T02:42:37.995Z,13.09
2023-05-10T02:48:28.031Z,13.21
2023-05-10T02:54:29.021Z,13.21
2023-05-10T03:00:16.484Z,13.30
2023-05-10T03:06:03.508Z,13.49
2023-05-10T03:12:06.423Z,13.34
2023-05-10T03:18:07.606Z,13.41
2023-05-10T03:24:06.943Z,13.24
2023-05-10T03:29:56.314Z,13.15
2023-05-10T03:35:45.248Z,13.19
2023-05-10T03:41:32.142Z,13.07
2023-05-10T03:47:21.518Z,12.85
2023-05-10T03:53:11.626Z,13.04
2023-05-10T03:59:00.328Z,12.96
2023-05-10T04:04:48.205Z,12.81
2023-05-10T04:10:35.095Z,12.71
2023-05-10T04:16:21.932Z,12.56
2023-05-10T04:22:10.958Z,12.46
2023-05-10T04:27:58.215Z,12.70
2023-05-10T04:33:45.204Z,12.73
2023-05-10T04:39:32.289Z,12.74
2023-05-10T04:45:21.255Z,12.41
2023-05-10T04:51:08.128Z,12.37
2023-05-10T04:56:58.231Z,12.17
2023-05-10T05:02:47.265Z,12.29
2023-05-10T05:08:37.518Z,12.18
2023-05-10T05:14:26.558Z,12.33
2023-05-10T05:20:20.499Z,12.46
2023-05-10T05:26:10.177Z,12.63
2023-05-10T05:32:00.400Z,12.56
2023-05-10T05:37:47.534Z,12.82
2023-05-10T05:43:36.673Z,12.95
2023-05-10T05:49:25.124Z,13.24
2023-05-10T05:55:12.813Z,13.34
2023-05-10T06:01:01.927Z,13.74
2023-05-10T06:06:48.739Z,14.49
2023-05-10T06:12:35.884Z,15.24
2023-05-10T06:18:23.025Z,15.92
2023-05-10T06:24:10.576Z,16.69
2023-05-10T06:30:11.667Z,16.35
2023-05-10T06:36:01.684Z,15.76
2023-05-10T06:41:50.490Z,15.83
2023-05-10T06:47:41.546Z,16.16
2023-05-10T06:53:38.029Z,16.53
2023-05-10T06:59:27.037Z,16.93
2023-05-10T07:05:24.175Z,17.26
2023-05-10T07:11:16.705Z,17.24
2023-05-10T07:17:03.827Z,17.14
2023-05-10T07:22:50.934Z,17.19
2023-05-10T07:28:40.145Z,17.17
2023-05-10T07:34:26.961Z,17.29
2023-05-10T07:40:13.944Z,17.56
2023-05-10T07:46:01.212Z,17.64
2023-05-10T07:51:48.579Z,18.60
2023-05-10T07:57:39.371Z,18.74
2023-05-10T08:03:30.140Z,19.22
2023-05-10T08:09:25.007Z,19.03
2023-05-10T08:15:12.194Z,19.50
2023-05-10T08:21:00.130Z,20.39
2023-05-10T08:26:49.738Z,20.37
2023-05-10T08:32:39.229Z,20.00
2023-05-10T08:38:26.964Z,20.11
2023-05-10T08:44:23.786Z,19.98
2023-05-10T08:50:19.079Z,19.44
2023-05-10T08:56:07.032Z,19.54
2023-05-10T09:01:56.998Z,19.83
2023-05-10T09:07:47.300Z,20.26
2023-05-10T09:13:36.834Z,20.83
2023-05-10T09:19:24.800Z,20.92
2023-05-10T09:25:16.838Z,20.57
2023-05-10T09:31:06.420Z,20.99
2023-05-10T09:37:06.820Z,21.64
2023-05-10T09:42:58.263Z,22.01
2023-05-10T09:48:47.385Z,21.29
2023-05-10T09:55:27.672Z,21.50
2023-05-10T10:01:14.670Z,22.08
2023-05-10T10:07:04.879Z,22.17
2023-05-10T10:12:52.346Z,22.30
2023-05-10T10:18:39.955Z,21.90
2023-05-10T10:24:28.388Z,22.35
2023-05-10T10:30:33.710Z,23.08
2023-05-10T10:36:22.006Z,22.48
2023-05-10T10:42:11.410Z,22.36
2023-05-10T10:48:27.062Z,21.92
2023-05-10T10:54:29.195Z,21.79
2023-05-10T11:00:32.088Z,22.78
2023-05-10T11:06:30.692Z,23.31
2023-05-10T11:12:18.980Z,23.59
2023-05-10T11:18:29.806Z,23.61
2023-05-10T11:24:24.031Z,23.27
2023-05-10T11:30:13.025Z,22.00
2023-05-10T11:36:00.219Z,22.72
2023-05-10T11:41:50.213Z,22.71
2023-05-10T11:47:42.610Z,23.03
2023-05-10T11:53:42.884Z,23.26
2023-05-10T11:59:29.997Z,23.58
2023-05-10T12:05:23.001Z,23.53
2023-05-10T12:11:29.496Z,23.11
2023-05-10T12:17:20.431Z,22.33
2023-05-10T12:23:15.440Z,21.58
2023-05-10T12:29:24.416Z,21.09
2023-05-10T12:35:14.187Z,21.18
2023-05-10T12:41:05.306Z,21.00
2023-05-10T12:46:52.386Z,20.91
2023-05-10T12:52:49.446Z,21.10
2023-05-10T12:58:38.470Z,21.32
2023-05-10T13:04:32.681Z,21.55
2023-05-10T13:10:25.502Z,21.65
2023-05-10T13:16:12.968Z,21.61
2023-05-10T13:22:12.540Z,21.41
2023-05-10T13:27:59.612Z,20.00
2023-05-10T13:33:48.617Z,17.98
2023-05-10T13:39:35.858Z,17.38
2023-05-10T13:45:26.074Z,16.80
2023-05-10T13:51:14.362Z,16.87
2023-05-10T13:57:04.107Z,17.36
2023-05-10T14:02:53.296Z,18.00
2023-05-10T14:08:42.321Z,19.12
2023-05-10T14:14:30.345Z,19.72
2023-05-10T14:20:19.926Z,19.84
2023-05-10T14:26:15.606Z,19.86
2023-05-10T14:32:07.008Z,20.00
2023-05-10T14:37:58.491Z,19.90
2023-05-10T14:43:54.672Z,19.57
2023-05-10T14:49:44.791Z,19.17
2023-05-10T14:55:35.008Z,18.77
2023-05-10T15:07:50.149Z,18.33
2023-05-10T15:13:39.826Z,18.62
2023-05-10T15:19:41.122Z,18.76
2023-05-10T15:25:31.915Z,18.04
2023-05-10T15:31:23.220Z,18.31
2023-05-10T15:37:11.673Z,18.59
2023-05-10T15:43:12.252Z,18.37
2023-05-10T15:49:25.001Z,17.90
2023-05-10T15:55:19.574Z,17.96
2023-05-10T16:01:12.958Z,17.07
2023-05-10T16:07:10.700Z,16.91
2023-05-10T16:12:58.644Z,16.33
2023-05-10T16:18:47.084Z,16.29
2023-05-10T16:24:47.243Z,16.05
2023-05-10T16:30:34.780Z,15.82
2023-05-10T16:36:31.448Z,15.85
2023-05-10T16:42:23.162Z,15.86
2023-05-10T16:48:13.682Z,15.80
2023-05-10T16:54:08.141Z,15.99
2023-05-10T17:00:00.265Z,15.87
2023-05-10T17:05:49.978Z,15.98
2023-05-10T17:11:45.343Z,15.89
2023-05-10T17:17:43.246Z,16.08
2023-05-10T17:29:46.480Z,16.58
2023-05-10T17:35:34.344Z,16.38
2023-05-10T17:41:23.662Z,16.28
2023-05-10T17:47:39.697Z,16.26
2023-05-10T17:55:06.873Z,16.27
2023-05-10T18:08:29.534Z,16.38
2023-05-10T18:14:40.738Z,16.47
2023-05-10T18:20:56.911Z,16.52
2023-05-10T18:26:54.953Z,16.44
2023-05-10T18:32:42.257Z,16.33
2023-05-10T18:38:34.103Z,16.50
2023-05-10T18:44:31.392Z,16.62
2023-05-10T18:50:49.863Z,16.42
2023-05-10T18:56:47.832Z,16.28
2023-05-10T19:02:51.707Z,16.38
2023-05-10T19:09:02.545Z,16.35
2023-05-10T19:15:12.317Z,16.22
2023-05-10T19:21:22.180Z,16.13
2023-05-10T19:27:18.225Z,16.11
2023-05-10T19:33:09.456Z,16.10
2023-05-10T19:39:17.040Z,16.09
2023-05-10T19:45:10.834Z,15.97
2023-05-10T19:51:21.842Z,16.05
2023-05-10T19:57:23.808Z,15.57
2023-05-10T20:03:34.748Z,15.57
2023-05-10T20:09:22.086Z,14.98
2023-05-10T20:15:17.077Z,14.56
2023-05-10T20:21:13.731Z,14.95
2023-05-10T20:27:23.932Z,15.10
2023-05-10T20:34:20.626Z,15.21
2023-05-10T20:39:53.664Z,15.31
2023-05-10T20:45:42.890Z,15.20
2023-05-10T20:51:33.364Z,15.09
2023-05-10T20:57:41.607Z,15.02
2023-05-10T21:03:32.309Z,15.12
2023-05-10T21:09:19.677Z,14.98
2023-05-10T21:15:10.308Z,15.04
2023-05-10T21:27:29.105Z,14.68
2023-05-10T21:33:28.520Z,14.80
2023-05-10T21:39:18.357Z,14.53
2023-05-10T21:45:19.484Z,14.25
2023-05-10T21:51:09.742Z,14.11
2023-05-10T21:56:57.424Z,13.91
2023-05-10T22:09:40.380Z,13.56
2023-05-10T22:15:30.406Z,13.48
2023-05-10T22:21:22.370Z,13.43
2023-05-10T22:27:10.416Z,13.28
2023-05-10T22:32:59.997Z,13.19
2023-05-10T22:38:50.135Z,13.13
2023-05-10T22:44:42.019Z,13.08
2023-05-10T22:50:31.153Z,13.04
2023-05-10T22:56:31.693Z,12.94
2023-05-10T23:02:27.423Z,12.82
2023-05-10T23:08:17.275Z,12.74
2023-05-10T23:14:07.285Z,12.81
2023-05-10T23:20:16.976Z,12.67
2023-05-10T23:26:05.354Z,12.63
2023-05-10T23:32:00.045Z,12.54
2023-05-10T23:37:53.071Z,12.52
2023-05-10T23:43:42.003Z,12.46
2023-05-10T23:49:30.149Z,12.49
2023-05-10T23:55:17.549Z,12.37
